sensor_id;sensor_type;location;lat;lon;timestamp;P1;durP1;ratioP1;P2;durP2;ratioP2
75589;SDS011;64169;47.240;11.312;2023-04-24T00:01:47;0.85;;;0.50;;
75589;SDS011;64169;47.240;11.312;2023-04-24T00:04:12;1.98;;;0.70;;
75589;SDS011;64169;47.240;11.312;2023-04-24T00:06:39;2.05;;;0.55;;
75589;SDS011;64169;47.240;11.312;2023-04-24T00:09:08;1.88;;;0.65;;
75589;SDS011;64169;47.240;11.312;2023-04-24T00:11:35;2.17;;;0.40;;
75589;SDS011;64169;47.240;11.312;2023-04-24T00:14:01;0.65;;;0.30;;
75589;SDS011;64169;47.240;11.312;2023-04-24T00:16:26;0.55;;;0.40;;
75589;SDS011;64169;47.240;11.312;2023-04-24T00:18:52;0.57;;;0.50;;
75589;SDS011;64169;47.240;11.312;2023-04-24T00:21:18;0.85;;;0.38;;
75589;SDS011;64169;47.240;11.312;2023-04-24T00:23:44;0.28;;;0.28;;
75589;SDS011;64169;47.240;11.312;2023-04-24T00:26:09;0.73;;;0.30;;
75589;SDS011;64169;47.240;11.312;2023-04-24T00:28:35;0.40;;;0.20;;
75589;SDS011;64169;47.240;11.312;2023-04-24T00:31:00;0.47;;;0.20;;
75589;SDS011;64169;47.240;11.312;2023-04-24T00:33:26;0.90;;;0.35;;
75589;SDS011;64169;47.240;11.312;2023-04-24T00:35:51;0.63;;;0.30;;
75589;SDS011;64169;47.240;11.312;2023-04-24T00:38:17;0.35;;;0.30;;
75589;SDS011;64169;47.240;11.312;2023-04-24T00:40:43;2.00;;;0.63;;
75589;SDS011;64169;47.240;11.312;2023-04-24T00:43:08;1.38;;;0.45;;
75589;SDS011;64169;47.240;11.312;2023-04-24T00:45:34;1.27;;;0.55;;
75589;SDS011;64169;47.240;11.312;2023-04-24T00:48:00;0.65;;;0.50;;
75589;SDS011;64169;47.240;11.312;2023-04-24T00:50:26;0.20;;;0.10;;
75589;SDS011;64169;47.240;11.312;2023-04-24T00:52:51;0.55;;;0.15;;
75589;SDS011;64169;47.240;11.312;2023-04-24T00:55:17;0.98;;;0.40;;
75589;SDS011;64169;47.240;11.312;2023-04-24T00:57:46;0.55;;;0.30;;
75589;SDS011;64169;47.240;11.312;2023-04-24T01:00:12;1.40;;;0.20;;
75589;SDS011;64169;47.240;11.312;2023-04-24T01:02:39;0.30;;;0.28;;
75589;SDS011;64169;47.240;11.312;2023-04-24T01:05:08;1.13;;;0.13;;
75589;SDS011;64169;47.240;11.312;2023-04-24T01:07:34;0.20;;;0.20;;
75589;SDS011;64169;47.240;11.312;2023-04-24T01:10:00;0.15;;;0.10;;
75589;SDS011;64169;47.240;11.312;2023-04-24T01:12:26;0.63;;;0.20;;
75589;SDS011;64169;47.240;11.312;2023-04-24T01:14:51;1.10;;;0.30;;
75589;SDS011;64169;47.240;11.312;2023-04-24T01:17:17;0.20;;;0.20;;
75589;SDS011;64169;47.240;11.312;2023-04-24T01:19:42;0.75;;;0.20;;
75589;SDS011;64169;47.240;11.312;2023-04-24T01:22:13;0.63;;;0.30;;
75589;SDS011;64169;47.240;11.312;2023-04-24T01:24:39;0.88;;;0.38;;
75589;SDS011;64169;47.240;11.312;2023-04-24T01:27:05;1.27;;;0.40;;
75589;SDS011;64169;47.240;11.312;2023-04-24T01:29:31;1.52;;;0.70;;
75589;SDS011;64169;47.240;11.312;2023-04-24T01:31:56;0.77;;;0.32;;
75589;SDS011;64169;47.240;11.312;2023-04-24T01:34:23;1.13;;;0.43;;
75589;SDS011;64169;47.240;11.312;2023-04-24T01:36:48;0.13;;;0.13;;
75589;SDS011;64169;47.240;11.312;2023-04-24T01:39:15;0.63;;;0.40;;
75589;SDS011;64169;47.240;11.312;2023-04-24T01:41:41;0.60;;;0.50;;
75589;SDS011;64169;47.240;11.312;2023-04-24T01:44:07;3.40;;;0.52;;
75589;SDS011;64169;47.240;11.312;2023-04-24T01:46:32;1.15;;;0.70;;
75589;SDS011;64169;47.240;11.312;2023-04-24T01:49:00;1.50;;;0.60;;
75589;SDS011;64169;47.240;11.312;2023-04-24T01:51:25;1.23;;;0.70;;
75589;SDS011;64169;47.240;11.312;2023-04-24T01:53:51;1.00;;;0.52;;
75589;SDS011;64169;47.240;11.312;2023-04-24T01:56:18;1.33;;;0.50;;
75589;SDS011;64169;47.240;11.312;2023-04-24T01:58:45;0.52;;;0.30;;
75589;SDS011;64169;47.240;11.312;2023-04-24T02:01:14;0.57;;;0.30;;
75589;SDS011;64169;47.240;11.312;2023-04-24T02:03:44;0.20;;;0.20;;
75589;SDS011;64169;47.240;11.312;2023-04-24T02:06:09;0.35;;;0.30;;
75589;SDS011;64169;47.240;11.312;2023-04-24T02:08:34;1.52;;;0.40;;
75589;SDS011;64169;47.240;11.312;2023-04-24T02:11:00;0.63;;;0.40;;
75589;SDS011;64169;47.240;11.312;2023-04-24T02:13:27;0.40;;;0.30;;
75589;SDS011;64169;47.240;11.312;2023-04-24T02:15:52;1.40;;;0.50;;
75589;SDS011;64169;47.240;11.312;2023-04-24T02:18:17;0.65;;;0.38;;
75589;SDS011;64169;47.240;11.312;2023-04-24T02:20:43;1.33;;;0.65;;
75589;SDS011;64169;47.240;11.312;2023-04-24T02:23:08;0.73;;;0.40;;
75589;SDS011;64169;47.240;11.312;2023-04-24T02:25:34;0.25;;;0.20;;
75589;SDS011;64169;47.240;11.312;2023-04-24T02:27:59;0.10;;;0.10;;
75589;SDS011;64169;47.240;11.312;2023-04-24T02:30:25;0.80;;;0.40;;
75589;SDS011;64169;47.240;11.312;2023-04-24T02:32:50;0.43;;;0.20;;
75589;SDS011;64169;47.240;11.312;2023-04-24T02:35:16;0.38;;;0.30;;
75589;SDS011;64169;47.240;11.312;2023-04-24T02:37:42;0.85;;;0.38;;
75589;SDS011;64169;47.240;11.312;2023-04-24T02:40:07;0.75;;;0.35;;
75589;SDS011;64169;47.240;11.312;2023-04-24T02:42:35;0.60;;;0.40;;
75589;SDS011;64169;47.240;11.312;2023-04-24T02:45:00;0.45;;;0.20;;
75589;SDS011;64169;47.240;11.312;2023-04-24T02:47:26;0.93;;;0.35;;
75589;SDS011;64169;47.240;11.312;2023-04-24T02:49:51;1.25;;;0.30;;
75589;SDS011;64169;47.240;11.312;2023-04-24T02:52:17;0.30;;;0.30;;
75589;SDS011;64169;47.240;11.312;2023-04-24T02:54:42;0.45;;;0.40;;
75589;SDS011;64169;47.240;11.312;2023-04-24T02:57:08;1.08;;;0.30;;
75589;SDS011;64169;47.240;11.312;2023-04-24T02:59:33;0.50;;;0.20;;
75589;SDS011;64169;47.240;11.312;2023-04-24T03:01:59;1.38;;;0.40;;
75589;SDS011;64169;47.240;11.312;2023-04-24T03:04:25;0.30;;;0.30;;
75589;SDS011;64169;47.240;11.312;2023-04-24T03:06:51;0.70;;;0.35;;
75589;SDS011;64169;47.240;11.312;2023-04-24T03:09:19;0.52;;;0.30;;
75589;SDS011;64169;47.240;11.312;2023-04-24T03:11:45;0.57;;;0.47;;
75589;SDS011;64169;47.240;11.312;2023-04-24T03:14:11;0.90;;;0.38;;
75589;SDS011;64169;47.240;11.312;2023-04-24T03:16:36;2.67;;;0.20;;
75589;SDS011;64169;47.240;11.312;2023-04-24T03:19:02;3.38;;;0.50;;
75589;SDS011;64169;47.240;11.312;2023-04-24T03:21:27;0.22;;;0.22;;
75589;SDS011;64169;47.240;11.312;2023-04-24T03:23:53;2.10;;;0.30;;
75589;SDS011;64169;47.240;11.312;2023-04-24T03:26:18;1.67;;;0.40;;
75589;SDS011;64169;47.240;11.312;2023-04-24T03:28:43;0.63;;;0.30;;
75589;SDS011;64169;47.240;11.312;2023-04-24T03:31:09;1.00;;;0.47;;
75589;SDS011;64169;47.240;11.312;2023-04-24T03:33:34;1.17;;;0.30;;
75589;SDS011;64169;47.240;11.312;2023-04-24T03:36:01;1.20;;;0.28;;
75589;SDS011;64169;47.240;11.312;2023-04-24T03:38:26;0.55;;;0.30;;
75589;SDS011;64169;47.240;11.312;2023-04-24T03:40:51;0.73;;;0.20;;
75589;SDS011;64169;47.240;11.312;2023-04-24T03:43:17;3.45;;;0.45;;
75589;SDS011;64169;47.240;11.312;2023-04-24T03:45:42;1.00;;;0.47;;
75589;SDS011;64169;47.240;11.312;2023-04-24T03:48:08;3.92;;;0.70;;
75589;SDS011;64169;47.240;11.312;2023-04-24T03:50:33;2.00;;;0.43;;
75589;SDS011;64169;47.240;11.312;2023-04-24T03:52:58;1.25;;;0.40;;
75589;SDS011;64169;47.240;11.312;2023-04-24T03:55:24;0.55;;;0.30;;
75589;SDS011;64169;47.240;11.312;2023-04-24T03:57:49;0.90;;;0.43;;
75589;SDS011;64169;47.240;11.312;2023-04-24T04:00:15;1.83;;;0.80;;
75589;SDS011;64169;47.240;11.312;2023-04-24T04:02:40;2.50;;;0.60;;
75589;SDS011;64169;47.240;11.312;2023-04-24T04:05:06;1.00;;;0.50;;
75589;SDS011;64169;47.240;11.312;2023-04-24T04:07:33;2.60;;;0.57;;
75589;SDS011;64169;47.240;11.312;2023-04-24T04:09:58;1.52;;;0.35;;
75589;SDS011;64169;47.240;11.312;2023-04-24T04:12:24;1.85;;;0.70;;
75589;SDS011;64169;47.240;11.312;2023-04-24T04:14:49;0.77;;;0.40;;
75589;SDS011;64169;47.240;11.312;2023-04-24T04:17:14;0.43;;;0.20;;
75589;SDS011;64169;47.240;11.312;2023-04-24T04:19:40;1.88;;;0.40;;
75589;SDS011;64169;47.240;11.312;2023-04-24T04:22:05;0.47;;;0.30;;
75589;SDS011;64169;47.240;11.312;2023-04-24T04:24:33;0.65;;;0.17;;
75589;SDS011;64169;47.240;11.312;2023-04-24T04:26:58;0.45;;;0.15;;
75589;SDS011;64169;47.240;11.312;2023-04-24T04:29:25;0.45;;;0.30;;
75589;SDS011;64169;47.240;11.312;2023-04-24T04:31:51;0.75;;;0.20;;
75589;SDS011;64169;47.240;11.312;2023-04-24T04:34:16;0.75;;;0.20;;
75589;SDS011;64169;47.240;11.312;2023-04-24T04:36:42;0.40;;;0.30;;
75589;SDS011;64169;47.240;11.312;2023-04-24T04:39:08;1.67;;;0.50;;
75589;SDS011;64169;47.240;11.312;2023-04-24T04:41:34;0.60;;;0.20;;
75589;SDS011;64169;47.240;11.312;2023-04-24T04:44:05;1.13;;;0.43;;
75589;SDS011;64169;47.240;11.312;2023-04-24T04:46:31;1.60;;;0.40;;
75589;SDS011;64169;47.240;11.312;2023-04-24T04:48:59;0.52;;;0.30;;
75589;SDS011;64169;47.240;11.312;2023-04-24T04:51:26;1.13;;;0.30;;
75589;SDS011;64169;47.240;11.312;2023-04-24T04:53:52;0.70;;;0.50;;
75589;SDS011;64169;47.240;11.312;2023-04-24T04:56:17;0.28;;;0.05;;
75589;SDS011;64169;47.240;11.312;2023-04-24T04:58:43;0.10;;;0.10;;
75589;SDS011;64169;47.240;11.312;2023-04-24T05:01:08;0.50;;;0.30;;
75589;SDS011;64169;47.240;11.312;2023-04-24T05:03:34;2.38;;;0.50;;
75589;SDS011;64169;47.240;11.312;2023-04-24T05:05:59;1.88;;;0.50;;
75589;SDS011;64169;47.240;11.312;2023-04-24T05:08:25;1.58;;;0.52;;
75589;SDS011;64169;47.240;11.312;2023-04-24T05:10:50;0.50;;;0.20;;
75589;SDS011;64169;47.240;11.312;2023-04-24T05:13:15;1.23;;;0.57;;
75589;SDS011;64169;47.240;11.312;2023-04-24T05:15:41;1.88;;;0.52;;
75589;SDS011;64169;47.240;11.312;2023-04-24T05:18:06;1.92;;;0.60;;
75589;SDS011;64169;47.240;11.312;2023-04-24T05:20:33;3.17;;;0.70;;
75589;SDS011;64169;47.240;11.312;2023-04-24T05:22:58;2.83;;;1.02;;
75589;SDS011;64169;47.240;11.312;2023-04-24T05:25:23;2.78;;;0.90;;
75589;SDS011;64169;47.240;11.312;2023-04-24T05:27:49;1.92;;;0.80;;
75589;SDS011;64169;47.240;11.312;2023-04-24T05:30:14;2.72;;;0.60;;
75589;SDS011;64169;47.240;11.312;2023-04-24T05:32:40;1.38;;;0.60;;
75589;SDS011;64169;47.240;11.312;2023-04-24T05:35:05;1.33;;;0.60;;
75589;SDS011;64169;47.240;11.312;2023-04-24T05:37:31;1.27;;;0.70;;
75589;SDS011;64169;47.240;11.312;2023-04-24T05:39:57;0.65;;;0.50;;
75589;SDS011;64169;47.240;11.312;2023-04-24T05:42:22;0.38;;;0.35;;
75589;SDS011;64169;47.240;11.312;2023-04-24T05:44:47;1.65;;;0.60;;
75589;SDS011;64169;47.240;11.312;2023-04-24T05:47:13;4.10;;;1.42;;
75589;SDS011;64169;47.240;11.312;2023-04-24T05:49:38;3.63;;;1.08;;
75589;SDS011;64169;47.240;11.312;2023-04-24T05:52:04;3.60;;;1.20;;
75589;SDS011;64169;47.240;11.312;2023-04-24T05:54:31;3.40;;;1.08;;
75589;SDS011;64169;47.240;11.312;2023-04-24T05:56:56;4.78;;;1.17;;
75589;SDS011;64169;47.240;11.312;2023-04-24T05:59:22;5.30;;;1.45;;
75589;SDS011;64169;47.240;11.312;2023-04-24T06:01:47;3.63;;;1.45;;
75589;SDS011;64169;47.240;11.312;2023-04-24T06:04:13;3.03;;;1.20;;
75589;SDS011;64169;47.240;11.312;2023-04-24T06:06:38;3.90;;;1.27;;
75589;SDS011;64169;47.240;11.312;2023-04-24T06:09:04;3.35;;;0.93;;
75589;SDS011;64169;47.240;11.312;2023-04-24T06:11:30;5.28;;;1.40;;
75589;SDS011;64169;47.240;11.312;2023-04-24T06:13:55;2.83;;;1.02;;
75589;SDS011;64169;47.240;11.312;2023-04-24T06:16:21;3.42;;;1.23;;
75589;SDS011;64169;47.240;11.312;2023-04-24T06:18:46;2.80;;;0.93;;
75589;SDS011;64169;47.240;11.312;2023-04-24T06:21:12;2.75;;;1.10;;
75589;SDS011;64169;47.240;11.312;2023-04-24T06:23:37;3.45;;;1.10;;
75589;SDS011;64169;47.240;11.312;2023-04-24T06:26:03;3.47;;;1.20;;
75589;SDS011;64169;47.240;11.312;2023-04-24T06:28:28;3.30;;;1.02;;
75589;SDS011;64169;47.240;11.312;2023-04-24T06:30:54;3.38;;;1.20;;
75589;SDS011;64169;47.240;11.312;2023-04-24T06:33:19;4.70;;;1.25;;
75589;SDS011;64169;47.240;11.312;2023-04-24T06:35:45;3.33;;;1.05;;
75589;SDS011;64169;47.240;11.312;2023-04-24T06:38:10;11.63;;;2.00;;
75589;SDS011;64169;47.240;11.312;2023-04-24T06:40:36;6.93;;;1.58;;
75589;SDS011;64169;47.240;11.312;2023-04-24T06:43:01;3.17;;;1.25;;
75589;SDS011;64169;47.240;11.312;2023-04-24T06:45:28;4.13;;;1.00;;
75589;SDS011;64169;47.240;11.312;2023-04-24T06:47:54;3.47;;;0.88;;
75589;SDS011;64169;47.240;11.312;2023-04-24T06:50:19;2.97;;;1.08;;
75589;SDS011;64169;47.240;11.312;2023-04-24T06:52:45;5.85;;;1.50;;
75589;SDS011;64169;47.240;11.312;2023-04-24T06:55:10;4.20;;;1.30;;
75589;SDS011;64169;47.240;11.312;2023-04-24T06:57:36;8.82;;;3.17;;
75589;SDS011;64169;47.240;11.312;2023-04-24T07:00:02;5.03;;;1.38;;
75589;SDS011;64169;47.240;11.312;2023-04-24T07:02:30;5.30;;;1.33;;
75589;SDS011;64169;47.240;11.312;2023-04-24T07:04:55;5.10;;;1.33;;
75589;SDS011;64169;47.240;11.312;2023-04-24T07:07:22;4.07;;;0.93;;
75589;SDS011;64169;47.240;11.312;2023-04-24T07:09:48;5.05;;;0.93;;
75589;SDS011;64169;47.240;11.312;2023-04-24T07:12:15;4.40;;;1.15;;
75589;SDS011;64169;47.240;11.312;2023-04-24T07:14:42;3.47;;;1.02;;
75589;SDS011;64169;47.240;11.312;2023-04-24T07:17:07;4.13;;;1.20;;
75589;SDS011;64169;47.240;11.312;2023-04-24T07:19:33;3.90;;;1.45;;
75589;SDS011;64169;47.240;11.312;2023-04-24T07:22:00;4.35;;;1.15;;
75589;SDS011;64169;47.240;11.312;2023-04-24T07:24:26;3.85;;;1.30;;
75589;SDS011;64169;47.240;11.312;2023-04-24T07:26:51;4.32;;;1.33;;
75589;SDS011;64169;47.240;11.312;2023-04-24T07:29:17;3.20;;;1.20;;
75589;SDS011;64169;47.240;11.312;2023-04-24T07:31:43;2.38;;;0.93;;
75589;SDS011;64169;47.240;11.312;2023-04-24T07:34:09;2.40;;;0.90;;
75589;SDS011;64169;47.240;11.312;2023-04-24T07:36:34;5.72;;;1.40;;
75589;SDS011;64169;47.240;11.312;2023-04-24T07:39:00;3.10;;;0.98;;
75589;SDS011;64169;47.240;11.312;2023-04-24T07:41:25;3.00;;;1.10;;
75589;SDS011;64169;47.240;11.312;2023-04-24T07:43:52;4.45;;;1.33;;
75589;SDS011;64169;47.240;11.312;2023-04-24T07:46:18;3.88;;;1.30;;
75589;SDS011;64169;47.240;11.312;2023-04-24T07:48:44;4.93;;;0.88;;
75589;SDS011;64169;47.240;11.312;2023-04-24T07:51:11;2.55;;;1.02;;
75589;SDS011;64169;47.240;11.312;2023-04-24T07:53:38;4.10;;;1.10;;
75589;SDS011;64169;47.240;11.312;2023-04-24T07:56:04;2.72;;;1.10;;
75589;SDS011;64169;47.240;11.312;2023-04-24T07:58:29;3.85;;;1.05;;
75589;SDS011;64169;47.240;11.312;2023-04-24T08:00:55;3.00;;;1.00;;
75589;SDS011;64169;47.240;11.312;2023-04-24T08:03:20;4.22;;;1.10;;
75589;SDS011;64169;47.240;11.312;2023-04-24T08:05:45;4.90;;;1.52;;
75589;SDS011;64169;47.240;11.312;2023-04-24T08:08:11;5.07;;;1.30;;
75589;SDS011;64169;47.240;11.312;2023-04-24T08:10:36;4.63;;;1.42;;
75589;SDS011;64169;47.240;11.312;2023-04-24T08:13:02;3.00;;;1.13;;
75589;SDS011;64169;47.240;11.312;2023-04-24T08:15:27;4.75;;;1.40;;
75589;SDS011;64169;47.240;11.312;2023-04-24T08:17:53;4.00;;;2.03;;
75589;SDS011;64169;47.240;11.312;2023-04-24T08:20:18;4.22;;;1.50;;
75589;SDS011;64169;47.240;11.312;2023-04-24T08:22:44;4.38;;;1.60;;
75589;SDS011;64169;47.240;11.312;2023-04-24T08:25:12;6.35;;;1.65;;
75589;SDS011;64169;47.240;11.312;2023-04-24T08:27:37;5.00;;;1.77;;
75589;SDS011;64169;47.240;11.312;2023-04-24T08:30:04;6.47;;;2.88;;
75589;SDS011;64169;47.240;11.312;2023-04-24T08:32:30;4.60;;;1.95;;
75589;SDS011;64169;47.240;11.312;2023-04-24T08:34:56;7.38;;;2.97;;
75589;SDS011;64169;47.240;11.312;2023-04-24T08:37:22;4.97;;;2.63;;
75589;SDS011;64169;47.240;11.312;2023-04-24T08:39:48;5.07;;;1.80;;
75589;SDS011;64169;47.240;11.312;2023-04-24T08:42:14;5.03;;;2.10;;
75589;SDS011;64169;47.240;11.312;2023-04-24T08:44:41;4.50;;;1.77;;
75589;SDS011;64169;47.240;11.312;2023-04-24T08:47:07;5.47;;;2.17;;
75589;SDS011;64169;47.240;11.312;2023-04-24T08:49:32;5.15;;;1.90;;
75589;SDS011;64169;47.240;11.312;2023-04-24T08:51:59;5.63;;;1.98;;
75589;SDS011;64169;47.240;11.312;2023-04-24T08:54:25;5.25;;;1.83;;
75589;SDS011;64169;47.240;11.312;2023-04-24T08:56:50;4.43;;;1.80;;
75589;SDS011;64169;47.240;11.312;2023-04-24T08:59:18;4.32;;;1.50;;
75589;SDS011;64169;47.240;11.312;2023-04-24T09:01:45;7.40;;;3.05;;
75589;SDS011;64169;47.240;11.312;2023-04-24T09:04:11;9.75;;;1.60;;
75589;SDS011;64169;47.240;11.312;2023-04-24T09:06:39;4.13;;;1.20;;
75589;SDS011;64169;47.240;11.312;2023-04-24T09:09:05;5.75;;;1.40;;
75589;SDS011;64169;47.240;11.312;2023-04-24T09:11:31;3.58;;;1.10;;
75589;SDS011;64169;47.240;11.312;2023-04-24T09:13:59;4.43;;;1.20;;
75589;SDS011;64169;47.240;11.312;2023-04-24T09:16:26;2.92;;;1.13;;
75589;SDS011;64169;47.240;11.312;2023-04-24T09:18:51;3.65;;;1.17;;
75589;SDS011;64169;47.240;11.312;2023-04-24T09:21:17;3.75;;;1.30;;
75589;SDS011;64169;47.240;11.312;2023-04-24T09:23:43;5.28;;;1.42;;
75589;SDS011;64169;47.240;11.312;2023-04-24T09:26:09;4.28;;;1.23;;
75589;SDS011;64169;47.240;11.312;2023-04-24T09:28:35;3.63;;;1.35;;
75589;SDS011;64169;47.240;11.312;2023-04-24T09:31:08;4.10;;;1.27;;
75589;SDS011;64169;47.240;11.312;2023-04-24T09:33:34;3.80;;;1.30;;
75589;SDS011;64169;47.240;11.312;2023-04-24T09:36:00;4.05;;;1.55;;
75589;SDS011;64169;47.240;11.312;2023-04-24T09:38:37;3.40;;;1.00;;
75589;SDS011;64169;47.240;11.312;2023-04-24T09:41:04;3.85;;;1.23;;
75589;SDS011;64169;47.240;11.312;2023-04-24T09:43:31;4.70;;;1.30;;
75589;SDS011;64169;47.240;11.312;2023-04-24T09:45:57;2.08;;;0.90;;
75589;SDS011;64169;47.240;11.312;2023-04-24T09:48:33;2.22;;;0.93;;
75589;SDS011;64169;47.240;11.312;2023-04-24T09:51:00;2.97;;;0.98;;
75589;SDS011;64169;47.240;11.312;2023-04-24T09:53:26;3.88;;;1.50;;
75589;SDS011;64169;47.240;11.312;2023-04-24T09:55:52;4.72;;;1.30;;
75589;SDS011;64169;47.240;11.312;2023-04-24T09:58:18;4.25;;;1.38;;
75589;SDS011;64169;47.240;11.312;2023-04-24T10:00:49;2.67;;;1.00;;
75589;SDS011;64169;47.240;11.312;2023-04-24T10:03:18;3.28;;;1.10;;
75589;SDS011;64169;47.240;11.312;2023-04-24T10:05:44;3.78;;;1.13;;
75589;SDS011;64169;47.240;11.312;2023-04-24T10:08:11;3.05;;;1.10;;
75589;SDS011;64169;47.240;11.312;2023-04-24T10:10:43;3.85;;;1.40;;
75589;SDS011;64169;47.240;11.312;2023-04-24T10:13:10;3.75;;;1.10;;
75589;SDS011;64169;47.240;11.312;2023-04-24T10:15:36;3.35;;;1.17;;
75589;SDS011;64169;47.240;11.312;2023-04-24T10:18:03;4.30;;;1.17;;
75589;SDS011;64169;47.240;11.312;2023-04-24T10:20:31;3.33;;;1.15;;
75589;SDS011;64169;47.240;11.312;2023-04-24T10:22:57;4.70;;;1.30;;
75589;SDS011;64169;47.240;11.312;2023-04-24T10:25:24;3.42;;;1.38;;
75589;SDS011;64169;47.240;11.312;2023-04-24T10:27:51;4.00;;;1.38;;
75589;SDS011;64169;47.240;11.312;2023-04-24T10:30:18;3.25;;;1.17;;
75589;SDS011;64169;47.240;11.312;2023-04-24T10:32:44;3.67;;;1.20;;
75589;SDS011;64169;47.240;11.312;2023-04-24T10:35:11;3.78;;;1.10;;
75589;SDS011;64169;47.240;11.312;2023-04-24T10:37:43;4.05;;;1.30;;
75589;SDS011;64169;47.240;11.312;2023-04-24T10:40:17;3.30;;;1.00;;
75589;SDS011;64169;47.240;11.312;2023-04-24T10:42:46;2.92;;;1.00;;
75589;SDS011;64169;47.240;11.312;2023-04-24T10:45:17;4.10;;;1.08;;
75589;SDS011;64169;47.240;11.312;2023-04-24T10:50:18;3.17;;;1.02;;
75589;SDS011;64169;47.240;11.312;2023-04-24T10:52:44;4.25;;;1.10;;
75589;SDS011;64169;47.240;11.312;2023-04-24T10:55:10;2.90;;;0.90;;
75589;SDS011;64169;47.240;11.312;2023-04-24T10:57:38;2.47;;;0.80;;
75589;SDS011;64169;47.240;11.312;2023-04-24T11:00:13;2.42;;;0.90;;
75589;SDS011;64169;47.240;11.312;2023-04-24T11:02:46;2.63;;;0.88;;
75589;SDS011;64169;47.240;11.312;2023-04-24T11:05:17;2.67;;;0.88;;
75589;SDS011;64169;47.240;11.312;2023-04-24T11:10:44;2.72;;;1.00;;
75589;SDS011;64169;47.240;11.312;2023-04-24T11:13:13;4.57;;;1.05;;
75589;SDS011;64169;47.240;11.312;2023-04-24T11:15:41;3.00;;;1.00;;
75589;SDS011;64169;47.240;11.312;2023-04-24T11:18:12;2.88;;;0.95;;
75589;SDS011;64169;47.240;11.312;2023-04-24T11:23:06;3.92;;;1.27;;
75589;SDS011;64169;47.240;11.312;2023-04-24T11:25:33;3.35;;;1.13;;
75589;SDS011;64169;47.240;11.312;2023-04-24T11:28:04;3.47;;;1.00;;
75589;SDS011;64169;47.240;11.312;2023-04-24T11:30:30;2.83;;;1.02;;
75589;SDS011;64169;47.240;11.312;2023-04-24T11:32:57;3.50;;;1.10;;
75589;SDS011;64169;47.240;11.312;2023-04-24T11:35:30;2.45;;;0.90;;
75589;SDS011;64169;47.240;11.312;2023-04-24T11:38:02;2.15;;;0.82;;
75589;SDS011;64169;47.240;11.312;2023-04-24T11:40:28;2.20;;;0.90;;
75589;SDS011;64169;47.240;11.312;2023-04-24T11:42:53;3.63;;;1.02;;
75589;SDS011;64169;47.240;11.312;2023-04-24T11:45:23;1.55;;;0.60;;
75589;SDS011;64169;47.240;11.312;2023-04-24T11:47:51;0.82;;;0.50;;
75589;SDS011;64169;47.240;11.312;2023-04-24T11:50:17;0.68;;;0.32;;
75589;SDS011;64169;47.240;11.312;2023-04-24T11:52:45;0.73;;;0.52;;
75589;SDS011;64169;47.240;11.312;2023-04-24T11:57:48;0.30;;;0.30;;
75589;SDS011;64169;47.240;11.312;2023-04-24T12:00:15;1.45;;;0.50;;
75589;SDS011;64169;47.240;11.312;2023-04-24T12:02:42;1.25;;;0.30;;
75589;SDS011;64169;47.240;11.312;2023-04-24T12:05:07;1.10;;;0.60;;
75589;SDS011;64169;47.240;11.312;2023-04-24T12:07:40;0.88;;;0.43;;
75589;SDS011;64169;47.240;11.312;2023-04-24T12:10:08;2.22;;;0.65;;
75589;SDS011;64169;47.240;11.312;2023-04-24T12:12:34;2.78;;;0.90;;
75589;SDS011;64169;47.240;11.312;2023-04-24T12:15:00;4.80;;;1.60;;
75589;SDS011;64169;47.240;11.312;2023-04-24T12:17:27;2.25;;;0.60;;
75589;SDS011;64169;47.240;11.312;2023-04-24T12:19:57;1.90;;;0.82;;
75589;SDS011;64169;47.240;11.312;2023-04-24T12:22:27;8.05;;;3.65;;
75589;SDS011;64169;47.240;11.312;2023-04-24T12:27:28;6.05;;;2.70;;
75589;SDS011;64169;47.240;11.312;2023-04-24T12:29:55;4.18;;;1.38;;
75589;SDS011;64169;47.240;11.312;2023-04-24T12:32:21;2.10;;;0.60;;
75589;SDS011;64169;47.240;11.312;2023-04-24T12:34:47;1.88;;;0.80;;
75589;SDS011;64169;47.240;11.312;2023-04-24T12:37:15;2.58;;;0.80;;
75589;SDS011;64169;47.240;11.312;2023-04-24T12:39:44;2.33;;;0.80;;
75589;SDS011;64169;47.240;11.312;2023-04-24T12:42:27;3.65;;;0.90;;
75589;SDS011;64169;47.240;11.312;2023-04-24T12:44:56;2.28;;;0.82;;
75589;SDS011;64169;47.240;11.312;2023-04-24T12:47:22;1.70;;;0.60;;
75589;SDS011;64169;47.240;11.312;2023-04-24T12:49:48;1.27;;;0.52;;
75589;SDS011;64169;47.240;11.312;2023-04-24T12:52:15;1.42;;;0.50;;
75589;SDS011;64169;47.240;11.312;2023-04-24T12:54:42;1.63;;;0.60;;
75589;SDS011;64169;47.240;11.312;2023-04-24T12:57:07;1.58;;;0.60;;
75589;SDS011;64169;47.240;11.312;2023-04-24T12:59:33;3.58;;;0.80;;
75589;SDS011;64169;47.240;11.312;2023-04-24T13:01:58;3.67;;;0.60;;
75589;SDS011;64169;47.240;11.312;2023-04-24T13:04:23;2.40;;;0.60;;
75589;SDS011;64169;47.240;11.312;2023-04-24T13:06:50;2.33;;;0.70;;
75589;SDS011;64169;47.240;11.312;2023-04-24T13:09:15;1.33;;;0.40;;
75589;SDS011;64169;47.240;11.312;2023-04-24T13:11:40;1.35;;;0.70;;
75589;SDS011;64169;47.240;11.312;2023-04-24T13:14:06;0.40;;;0.32;;
75589;SDS011;64169;47.240;11.312;2023-04-24T13:16:31;1.08;;;0.55;;
75589;SDS011;64169;47.240;11.312;2023-04-24T13:18:57;0.68;;;0.50;;
75589;SDS011;64169;47.240;11.312;2023-04-24T13:21:22;2.95;;;0.57;;
75589;SDS011;64169;47.240;11.312;2023-04-24T13:23:48;0.85;;;0.30;;
75589;SDS011;64169;47.240;11.312;2023-04-24T13:26:13;0.70;;;0.30;;
75589;SDS011;64169;47.240;11.312;2023-04-24T13:28:38;1.00;;;0.40;;
75589;SDS011;64169;47.240;11.312;2023-04-24T13:31:04;1.13;;;0.50;;
75589;SDS011;64169;47.240;11.312;2023-04-24T13:33:29;1.10;;;0.30;;
75589;SDS011;64169;47.240;11.312;2023-04-24T13:35:55;1.00;;;0.30;;
75589;SDS011;64169;47.240;11.312;2023-04-24T13:38:20;0.73;;;0.30;;
75589;SDS011;64169;47.240;11.312;2023-04-24T13:40:47;0.75;;;0.20;;
75589;SDS011;64169;47.240;11.312;2023-04-24T13:43:12;0.60;;;0.17;;
75589;SDS011;64169;47.240;11.312;2023-04-24T13:45:38;0.75;;;0.43;;
75589;SDS011;64169;47.240;11.312;2023-04-24T13:48:03;0.40;;;0.40;;
75589;SDS011;64169;47.240;11.312;2023-04-24T13:50:29;1.02;;;0.50;;
75589;SDS011;64169;47.240;11.312;2023-04-24T13:52:54;0.35;;;0.30;;
75589;SDS011;64169;47.240;11.312;2023-04-24T13:55:21;0.93;;;0.40;;
75589;SDS011;64169;47.240;11.312;2023-04-24T13:57:47;0.35;;;0.20;;
75589;SDS011;64169;47.240;11.312;2023-04-24T14:00:12;0.63;;;0.47;;
75589;SDS011;64169;47.240;11.312;2023-04-24T14:02:38;2.35;;;0.40;;
75589;SDS011;64169;47.240;11.312;2023-04-24T14:05:04;0.50;;;0.50;;
75589;SDS011;64169;47.240;11.312;2023-04-24T14:07:31;0.85;;;0.50;;
75589;SDS011;64169;47.240;11.312;2023-04-24T14:09:56;6.90;;;2.28;;
75589;SDS011;64169;47.240;11.312;2023-04-24T14:12:22;1.20;;;0.57;;
75589;SDS011;64169;47.240;11.312;2023-04-24T14:14:47;3.28;;;0.50;;
75589;SDS011;64169;47.240;11.312;2023-04-24T14:17:13;1.05;;;0.40;;
75589;SDS011;64169;47.240;11.312;2023-04-24T14:19:39;1.00;;;0.40;;
75589;SDS011;64169;47.240;11.312;2023-04-24T14:22:05;0.52;;;0.40;;
75589;SDS011;64169;47.240;11.312;2023-04-24T14:24:30;1.50;;;0.45;;
75589;SDS011;64169;47.240;11.312;2023-04-24T14:26:55;1.33;;;0.40;;
75589;SDS011;64169;47.240;11.312;2023-04-24T14:29:21;0.75;;;0.43;;
75589;SDS011;64169;47.240;11.312;2023-04-24T14:31:47;1.10;;;0.50;;
75589;SDS011;64169;47.240;11.312;2023-04-24T14:34:13;1.10;;;0.40;;
75589;SDS011;64169;47.240;11.312;2023-04-24T14:36:38;0.75;;;0.30;;
75589;SDS011;64169;47.240;11.312;2023-04-24T14:39:04;0.63;;;0.30;;
75589;SDS011;64169;47.240;11.312;2023-04-24T14:41:32;0.63;;;0.28;;